sensor_id;sensor_type;location;lat;lon;timestamp;temperature;humidity
20672;DHT22;10495;50.922;4.760;2023-02-22T00:00:42;7.70;91.90
20672;DHT22;10495;50.922;4.760;2023-02-22T00:03:17;7.60;92.00
20672;DHT22;10495;50.922;4.760;2023-02-22T00:05:45;7.60;92.20
20672;DHT22;10495;50.922;4.760;2023-02-22T00:08:19;7.60;92.20
20672;DHT22;10495;50.922;4.760;2023-02-22T00:10:45;7.60;92.30
20672;DHT22;10495;50.922;4.760;2023-02-22T00:13:13;7.50;92.30
20672;DHT22;10495;50.922;4.760;2023-02-22T00:15:39;7.50;92.50
20672;DHT22;10495;50.922;4.760;2023-02-22T00:18:11;7.50;92.40
20672;DHT22;10495;50.922;4.760;2023-02-22T00:20:36;7.50;92.70
20672;DHT22;10495;50.922;4.760;2023-02-22T00:23:07;7.50;92.40
20672;DHT22;10495;50.922;4.760;2023-02-22T00:25:33;7.60;92.30
20672;DHT22;10495;50.922;4.760;2023-02-22T00:28:00;7.70;92.20
20672;DHT22;10495;50.922;4.760;2023-02-22T00:30:28;7.70;92.20
20672;DHT22;10495;50.922;4.760;2023-02-22T00:32:55;7.80;92.00
20672;DHT22;10495;50.922;4.760;2023-02-22T00:35:24;7.80;92.00
20672;DHT22;10495;50.922;4.760;2023-02-22T00:37:53;8.10;91.40
20672;DHT22;10495;50.922;4.760;2023-02-22T00:40:21;8.00;91.10
20672;DHT22;10495;50.922;4.760;2023-02-22T00:42:48;7.80;91.50
20672;DHT22;10495;50.922;4.760;2023-02-22T00:45:19;7.80;91.20
20672;DHT22;10495;50.922;4.760;2023-02-22T00:47:45;7.90;91.10
20672;DHT22;10495;50.922;4.760;2023-02-22T00:50:11;7.80;91.10
20672;DHT22;10495;50.922;4.760;2023-02-22T00:52:37;7.80;91.10
20672;DHT22;10495;50.922;4.760;2023-02-22T00:55:06;7.60;91.20
20672;DHT22;10495;50.922;4.760;2023-02-22T00:57:32;7.60;91.40
20672;DHT22;10495;50.922;4.760;2023-02-22T01:00:05;7.70;91.20
20672;DHT22;10495;50.922;4.760;2023-02-22T01:02:40;7.50;91.40
20672;DHT22;10495;50.922;4.760;2023-02-22T01:05:08;7.50;91.30
20672;DHT22;10495;50.922;4.760;2023-02-22T01:07:34;7.40;91.60
20672;DHT22;10495;50.922;4.760;2023-02-22T01:10:03;7.60;91.20
20672;DHT22;10495;50.922;4.760;2023-02-22T01:12:29;7.60;90.90
20672;DHT22;10495;50.922;4.760;2023-02-22T01:14:55;7.50;91.00
20672;DHT22;10495;50.922;4.760;2023-02-22T01:17:22;7.60;91.00
20672;DHT22;10495;50.922;4.760;2023-02-22T01:19:48;7.50;90.80
20672;DHT22;10495;50.922;4.760;2023-02-22T01:22:14;7.30;91.20
20672;DHT22;10495;50.922;4.760;2023-02-22T01:24:39;7.40;90.80
20672;DHT22;10495;50.922;4.760;2023-02-22T01:27:05;7.50;90.80
20672;DHT22;10495;50.922;4.760;2023-02-22T01:29:30;7.30;91.00
20672;DHT22;10495;50.922;4.760;2023-02-22T01:31:56;7.20;91.00
20672;DHT22;10495;50.922;4.760;2023-02-22T01:34:23;7.10;91.00
20672;DHT22;10495;50.922;4.760;2023-02-22T01:36:50;7.10;90.90
20672;DHT22;10495;50.922;4.760;2023-02-22T01:39:16;7.00;91.20
20672;DHT22;10495;50.922;4.760;2023-02-22T01:41:44;7.00;91.10
20672;DHT22;10495;50.922;4.760;2023-02-22T01:46:55;7.10;91.20
20672;DHT22;10495;50.922;4.760;2023-02-22T01:49:22;7.00;90.90
20672;DHT22;10495;50.922;4.760;2023-02-22T01:51:50;6.80;91.30
20672;DHT22;10495;50.922;4.760;2023-02-22T01:54:22;6.70;91.70
20672;DHT22;10495;50.922;4.760;2023-02-22T01:57:22;6.70;91.40
20672;DHT22;10495;50.922;4.760;2023-02-22T01:59:53;6.90;91.30
20672;DHT22;10495;50.922;4.760;2023-02-22T02:02:20;6.80;91.20
20672;DHT22;10495;50.922;4.760;2023-02-22T02:04:47;6.80;91.30
20672;DHT22;10495;50.922;4.760;2023-02-22T02:07:14;6.80;91.10
20672;DHT22;10495;50.922;4.760;2023-02-22T02:09:48;6.70;91.20
20672;DHT22;10495;50.922;4.760;2023-02-22T02:12:16;6.80;91.20
20672;DHT22;10495;50.922;4.760;2023-02-22T02:14:43;6.60;91.50
20672;DHT22;10495;50.922;4.760;2023-02-22T02:17:15;6.60;91.60
20672;DHT22;10495;50.922;4.760;2023-02-22T02:33:02;6.60;91.50
20672;DHT22;10495;50.922;4.760;2023-02-22T02:38:29;6.80;90.80
20672;DHT22;10495;50.922;4.760;2023-02-22T02:41:18;6.70;91.10
20672;DHT22;10495;50.922;4.760;2023-02-22T02:47:18;6.70;91.10
20672;DHT22;10495;50.922;4.760;2023-02-22T02:50:04;6.70;91.00
20672;DHT22;10495;50.922;4.760;2023-02-22T02:52:32;6.70;91.20
20672;DHT22;10495;50.922;4.760;2023-02-22T02:55:00;6.80;90.70
20672;DHT22;10495;50.922;4.760;2023-02-22T02:57:26;6.80;90.80
20672;DHT22;10495;50.922;4.760;2023-02-22T02:59:52;6.90;90.30
20672;DHT22;10495;50.922;4.760;2023-02-22T03:02:41;6.80;90.30
20672;DHT22;10495;50.922;4.760;2023-02-22T03:08:52;6.60;90.60
20672;DHT22;10495;50.922;4.760;2023-02-22T03:11:34;6.50;90.90
20672;DHT22;10495;50.922;4.760;2023-02-22T03:14:39;6.40;90.80
20672;DHT22;10495;50.922;4.760;2023-02-22T03:19:50;6.30;90.70
20672;DHT22;10495;50.922;4.760;2023-02-22T03:22:27;6.20;90.90
20672;DHT22;10495;50.922;4.760;2023-02-22T03:25:33;6.20;91.10
20672;DHT22;10495;50.922;4.760;2023-02-22T03:28:09;6.10;91.20
20672;DHT22;10495;50.922;4.760;2023-02-22T03:36:21;6.00;91.30
20672;DHT22;10495;50.922;4.760;2023-02-22T03:38:50;6.00;91.20
20672;DHT22;10495;50.922;4.760;2023-02-22T03:41:22;6.10;90.80
20672;DHT22;10495;50.922;4.760;2023-02-22T03:43:59;6.10;90.70
20672;DHT22;10495;50.922;4.760;2023-02-22T03:46:27;6.20;90.70
20672;DHT22;10495;50.922;4.760;2023-02-22T03:48:58;6.20;90.50
20672;DHT22;10495;50.922;4.760;2023-02-22T03:51:26;6.20;90.60
20672;DHT22;10495;50.922;4.760;2023-02-22T03:53:52;6.10;90.70
20672;DHT22;10495;50.922;4.760;2023-02-22T03:56:22;6.20;90.70
20672;DHT22;10495;50.922;4.760;2023-02-22T03:58:50;6.20;90.70
20672;DHT22;10495;50.922;4.760;2023-02-22T04:01:16;6.00;90.60
20672;DHT22;10495;50.922;4.760;2023-02-22T04:03:42;6.00;90.90
20672;DHT22;10495;50.922;4.760;2023-02-22T04:06:08;6.10;90.90
20672;DHT22;10495;50.922;4.760;2023-02-22T04:08:34;5.80;91.00
20672;DHT22;10495;50.922;4.760;2023-02-22T04:11:00;5.80;91.00
20672;DHT22;10495;50.922;4.760;2023-02-22T04:13:26;6.00;90.80
20672;DHT22;10495;50.922;4.760;2023-02-22T04:15:52;5.90;90.90
20672;DHT22;10495;50.922;4.760;2023-02-22T04:18:17;5.80;90.70
20672;DHT22;10495;50.922;4.760;2023-02-22T04:20:43;5.90;90.80
20672;DHT22;10495;50.922;4.760;2023-02-22T04:23:09;6.00;90.60
20672;DHT22;10495;50.922;4.760;2023-02-22T04:25:35;6.10;90.50
20672;DHT22;10495;50.922;4.760;2023-02-22T04:28:01;6.00;90.50
20672;DHT22;10495;50.922;4.760;2023-02-22T04:30:27;5.90;90.60
20672;DHT22;10495;50.922;4.760;2023-02-22T04:32:54;6.00;90.30
20672;DHT22;10495;50.922;4.760;2023-02-22T04:35:20;5.80;90.60
20672;DHT22;10495;50.922;4.760;2023-02-22T04:37:46;5.70;91.10
20672;DHT22;10495;50.922;4.760;2023-02-22T04:40:12;5.70;91.00
20672;DHT22;10495;50.922;4.760;2023-02-22T04:42:38;5.80;91.00
20672;DHT22;10495;50.922;4.760;2023-02-22T04:45:05;5.70;91.00
20672;DHT22;10495;50.922;4.760;2023-02-22T04:47:32;5.80;91.00
20672;DHT22;10495;50.922;4.760;2023-02-22T04:49:58;5.70;90.80
20672;DHT22;10495;50.922;4.760;2023-02-22T04:52:25;5.80;90.70
20672;DHT22;10495;50.922;4.760;2023-02-22T04:54:51;5.70;90.80
20672;DHT22;10495;50.922;4.760;2023-02-22T04:57:17;5.80;90.70
20672;DHT22;10495;50.922;4.760;2023-02-22T04:59:42;5.70;90.80
20672;DHT22;10495;50.922;4.760;2023-02-22T05:02:08;5.70;90.80
20672;DHT22;10495;50.922;4.760;2023-02-22T05:04:35;5.70;90.70
20672;DHT22;10495;50.922;4.760;2023-02-22T05:07:01;5.90;90.40
20672;DHT22;10495;50.922;4.760;2023-02-22T05:09:27;5.70;90.80
20672;DHT22;10495;50.922;4.760;2023-02-22T05:11:52;5.80;90.50
20672;DHT22;10495;50.922;4.760;2023-02-22T05:14:18;5.90;90.20
20672;DHT22;10495;50.922;4.760;2023-02-22T05:16:43;5.80;90.50
20672;DHT22;10495;50.922;4.760;2023-02-22T05:19:09;5.50;90.70
20672;DHT22;10495;50.922;4.760;2023-02-22T05:21:35;5.60;90.90
20672;DHT22;10495;50.922;4.760;2023-02-22T05:24:00;5.60;90.90
20672;DHT22;10495;50.922;4.760;2023-02-22T05:26:26;5.60;90.80
20672;DHT22;10495;50.922;4.760;2023-02-22T05:28:51;5.40;91.10
20672;DHT22;10495;50.922;4.760;2023-02-22T05:31:17;5.50;90.90
20672;DHT22;10495;50.922;4.760;2023-02-22T05:33:42;5.60;91.30
20672;DHT22;10495;50.922;4.760;2023-02-22T05:36:08;5.60;91.00
20672;DHT22;10495;50.922;4.760;2023-02-22T05:38:36;5.60;90.90
20672;DHT22;10495;50.922;4.760;2023-02-22T05:41:10;5.40;91.10
20672;DHT22;10495;50.922;4.760;2023-02-22T05:43:36;5.60;91.10
20672;DHT22;10495;50.922;4.760;2023-02-22T05:46:02;5.40;91.00
20672;DHT22;10495;50.922;4.760;2023-02-22T05:48:27;5.40;91.10
20672;DHT22;10495;50.922;4.760;2023-02-22T05:50:53;5.30;91.30
20672;DHT22;10495;50.922;4.760;2023-02-22T05:53:20;5.20;91.30
20672;DHT22;10495;50.922;4.760;2023-02-22T05:55:46;5.30;91.30
20672;DHT22;10495;50.922;4.760;2023-02-22T05:58:11;5.30;91.10
20672;DHT22;10495;50.922;4.760;2023-02-22T06:00:37;5.40;91.30
20672;DHT22;10495;50.922;4.760;2023-02-22T06:03:05;5.30;91.20
20672;DHT22;10495;50.922;4.760;2023-02-22T06:05:31;5.30;91.20
20672;DHT22;10495;50.922;4.760;2023-02-22T06:07:58;5.30;91.10
20672;DHT22;10495;50.922;4.760;2023-02-22T06:10:24;5.30;91.30
20672;DHT22;10495;50.922;4.760;2023-02-22T06:12:50;5.30;91.20
20672;DHT22;10495;50.922;4.760;2023-02-22T06:15:17;5.30;91.10
20672;DHT22;10495;50.922;4.760;2023-02-22T06:17:43;5.40;91.10
20672;DHT22;10495;50.922;4.760;2023-02-22T06:20:11;5.30;91.10
20672;DHT22;10495;50.922;4.760;2023-02-22T06:22:37;5.40;90.90
20672;DHT22;10495;50.922;4.760;2023-02-22T06:25:06;5.40;90.90
20672;DHT22;10495;50.922;4.760;2023-02-22T06:27:33;5.40;90.90
20672;DHT22;10495;50.922;4.760;2023-02-22T06:29:59;5.40;90.90
20672;DHT22;10495;50.922;4.760;2023-02-22T06:32:26;5.30;91.00
20672;DHT22;10495;50.922;4.760;2023-02-22T06:34:51;5.40;91.10
20672;DHT22;10495;50.922;4.760;2023-02-22T06:37:17;5.40;91.10
20672;DHT22;10495;50.922;4.760;2023-02-22T06:39:42;5.50;90.80
20672;DHT22;10495;50.922;4.760;2023-02-22T06:42:08;5.40;90.80
20672;DHT22;10495;50.922;4.760;2023-02-22T06:44:34;5.50;90.90
20672;DHT22;10495;50.922;4.760;2023-02-22T06:46:59;5.50;90.70
20672;DHT22;10495;50.922;4.760;2023-02-22T06:49:25;5.70;90.40
20672;DHT22;10495;50.922;4.760;2023-02-22T06:51:52;5.50;90.50
20672;DHT22;10495;50.922;4.760;2023-02-22T06:54:18;5.40;90.80
20672;DHT22;10495;50.922;4.760;2023-02-22T06:56:44;5.40;90.80
20672;DHT22;10495;50.922;4.760;2023-02-22T06:59:09;5.50;90.80
20672;DHT22;10495;50.922;4.760;2023-02-22T07:01:35;5.70;90.40
20672;DHT22;10495;50.922;4.760;2023-02-22T07:04:01;5.80;90.00
20672;DHT22;10495;50.922;4.760;2023-02-22T07:06:26;5.70;90.00
20672;DHT22;10495;50.922;4.760;2023-02-22T07:08:52;5.50;90.50
20672;DHT22;10495;50.922;4.760;2023-02-22T07:11:17;5.40;90.70
20672;DHT22;10495;50.922;4.760;2023-02-22T07:13:43;5.30;90.90
20672;DHT22;10495;50.922;4.760;2023-02-22T07:16:09;5.40;90.80
20672;DHT22;10495;50.922;4.760;2023-02-22T07:18:34;5.40;90.90
20672;DHT22;10495;50.922;4.760;2023-02-22T07:21:00;5.40;90.90
20672;DHT22;10495;50.922;4.760;2023-02-22T07:23:26;5.40;90.90
20672;DHT22;10495;50.922;4.760;2023-02-22T07:25:51;5.50;91.00
20672;DHT22;10495;50.922;4.760;2023-02-22T07:28:17;5.60;91.00
20672;DHT22;10495;50.922;4.760;2023-02-22T07:30:42;5.60;91.00
20672;DHT22;10495;50.922;4.760;2023-02-22T07:33:10;5.70;91.00
20672;DHT22;10495;50.922;4.760;2023-02-22T07:35:38;5.70;91.00
20672;DHT22;10495;50.922;4.760;2023-02-22T07:38:07;5.70;90.90
20672;DHT22;10495;50.922;4.760;2023-02-22T07:40:34;5.80;90.90
20672;DHT22;10495;50.922;4.760;2023-02-22T07:43:11;5.90;90.80
20672;DHT22;10495;50.922;4.760;2023-02-22T07:45:37;6.20;90.30
20672;DHT22;10495;50.922;4.760;2023-02-22T07:48:04;6.30;90.00
20672;DHT22;10495;50.922;4.760;2023-02-22T07:50:32;6.20;90.20
20672;DHT22;10495;50.922;4.760;2023-02-22T07:53:00;6.10;90.50
20672;DHT22;10495;50.922;4.760;2023-02-22T07:55:27;6.10;90.50
20672;DHT22;10495;50.922;4.760;2023-02-22T07:57:55;6.10;90.60
20672;DHT22;10495;50.922;4.760;2023-02-22T08:00:29;6.30;90.70
20672;DHT22;10495;50.922;4.760;2023-02-22T08:02:58;6.30;90.70
20672;DHT22;10495;50.922;4.760;2023-02-22T08:05:25;6.50;90.70
20672;DHT22;10495;50.922;4.760;2023-02-22T08:07:51;6.50;90.90
20672;DHT22;10495;50.922;4.760;2023-02-22T08:10:18;6.70;90.90
20672;DHT22;10495;50.922;4.760;2023-02-22T08:12:44;6.90;90.80
20672;DHT22;10495;50.922;4.760;2023-02-22T08:15:17;7.20;90.70
20672;DHT22;10495;50.922;4.760;2023-02-22T08:17:42;7.40;90.70
20672;DHT22;10495;50.922;4.760;2023-02-22T08:20:08;7.50;90.60
20672;DHT22;10495;50.922;4.760;2023-02-22T08:22:34;7.50;90.40
20672;DHT22;10495;50.922;4.760;2023-02-22T08:24:59;7.60;90.70
20672;DHT22;10495;50.922;4.760;2023-02-22T08:27:27;7.70;90.10
20672;DHT22;10495;50.922;4.760;2023-02-22T08:29:53;7.80;90.20
20672;DHT22;10495;50.922;4.760;2023-02-22T08:32:20;7.80;90.10
20672;DHT22;10495;50.922;4.760;2023-02-22T08:34:46;7.90;89.90
20672;DHT22;10495;50.922;4.760;2023-02-22T08:37:12;8.00;90.00
20672;DHT22;10495;50.922;4.760;2023-02-22T08:39:38;8.10;90.00
20672;DHT22;10495;50.922;4.760;2023-02-22T08:42:03;8.30;90.10
20672;DHT22;10495;50.922;4.760;2023-02-22T08:44:29;8.40;90.00
20672;DHT22;10495;50.922;4.760;2023-02-22T08:46:54;8.50;90.00
20672;DHT22;10495;50.922;4.760;2023-02-22T08:49:20;8.50;90.10
20672;DHT22;10495;50.922;4.760;2023-02-22T08:51:46;8.70;90.30
20672;DHT22;10495;50.922;4.760;2023-02-22T08:54:12;8.60;90.30
20672;DHT22;10495;50.922;4.760;2023-02-22T08:56:38;8.80;90.20
20672;DHT22;10495;50.922;4.760;2023-02-22T08:59:03;8.90;90.00
20672;DHT22;10495;50.922;4.760;2023-02-22T09:01:29;9.00;90.20
20672;DHT22;10495;50.922;4.760;2023-02-22T09:03:55;9.20;90.20
20672;DHT22;10495;50.922;4.760;2023-02-22T09:06:21;9.40;90.30
20672;DHT22;10495;50.922;4.760;2023-02-22T09:08:47;9.60;90.10
20672;DHT22;10495;50.922;4.760;2023-02-22T09:11:13;9.80;90.10
20672;DHT22;10495;50.922;4.760;2023-02-22T09:13:38;10.10;89.90
20672;DHT22;10495;50.922;4.760;2023-02-22T09:16:04;10.40;89.70
20672;DHT22;10495;50.922;4.760;2023-02-22T09:18:30;10.50;89.20
20672;DHT22;10495;50.922;4.760;2023-02-22T09:20:56;10.70;88.00
20672;DHT22;10495;50.922;4.760;2023-02-22T09:23:22;10.80;88.30
20672;DHT22;10495;50.922;4.760;2023-02-22T09:25:48;11.10;88.70
20672;DHT22;10495;50.922;4.760;2023-02-22T09:28:14;11.10;86.60
20672;DHT22;10495;50.922;4.760;2023-02-22T09:30:39;11.20;86.70
20672;DHT22;10495;50.922;4.760;2023-02-22T09:33:07;11.40;86.90
20672;DHT22;10495;50.922;4.760;2023-02-22T09:35:37;11.40;84.30
20672;DHT22;10495;50.922;4.760;2023-02-22T09:38:07;11.50;84.80
20672;DHT22;10495;50.922;4.760;2023-02-22T09:40:39;11.60;84.50
20672;DHT22;10495;50.922;4.760;2023-02-22T09:46:31;11.70;83.50
20672;DHT22;10495;50.922;4.760;2023-02-22T09:49:08;11.70;82.70
20672;DHT22;10495;50.922;4.760;2023-02-22T09:51:42;11.70;83.10
20672;DHT22;10495;50.922;4.760;2023-02-22T09:54:24;11.70;83.60
20672;DHT22;10495;50.922;4.760;2023-02-22T09:56:55;11.70;83.60
20672;DHT22;10495;50.922;4.760;2023-02-22T09:59:27;11.70;83.00
20672;DHT22;10495;50.922;4.760;2023-02-22T10:01:58;11.60;83.80
20672;DHT22;10495;50.922;4.760;2023-02-22T10:04:40;11.60;83.60
20672;DHT22;10495;50.922;4.760;2023-02-22T10:07:24;11.60;83.40
20672;DHT22;10495;50.922;4.760;2023-02-22T10:09:53;11.60;81.60
20672;DHT22;10495;50.922;4.760;2023-02-22T10:18:41;11.50;83.30
20672;DHT22;10495;50.922;4.760;2023-02-22T10:21:26;11.50;82.70
20672;DHT22;10495;50.922;4.760;2023-02-22T10:26:45;11.40;83.20
20672;DHT22;10495;50.922;4.760;2023-02-22T10:32:02;11.30;83.60
20672;DHT22;10495;50.922;4.760;2023-02-22T10:34:51;11.40;83.80
20672;DHT22;10495;50.922;4.760;2023-02-22T10:37:29;11.40;84.50
20672;DHT22;10495;50.922;4.760;2023-02-22T10:40:10;11.30;85.00
20672;DHT22;10495;50.922;4.760;2023-02-22T10:42:36;11.30;85.10
20672;DHT22;10495;50.922;4.760;2023-02-22T10:45:02;11.30;85.10
20672;DHT22;10495;50.922;4.760;2023-02-22T10:47:28;11.40;85.20
20672;DHT22;10495;50.922;4.760;2023-02-22T10:49:56;11.40;85.00
20672;DHT22;10495;50.922;4.760;2023-02-22T10:52:31;11.30;85.00
20672;DHT22;10495;50.922;4.760;2023-02-22T10:54:59;11.20;84.70
20672;DHT22;10495;50.922;4.760;2023-02-22T10:57:28;11.30;85.10
20672;DHT22;10495;50.922;4.760;2023-02-22T10:59:56;11.50;85.40
20672;DHT22;10495;50.922;4.760;2023-02-22T11:02:30;11.50;85.10
20672;DHT22;10495;50.922;4.760;2023-02-22T11:04:58;11.60;84.40
20672;DHT22;10495;50.922;4.760;2023-02-22T11:09:55;11.60;85.00
20672;DHT22;10495;50.922;4.760;2023-02-22T11:14:55;11.80;85.30
20672;DHT22;10495;50.922;4.760;2023-02-22T11:17:31;11.80;85.60
20672;DHT22;10495;50.922;4.760;2023-02-22T11:19:58;11.90;85.40
20672;DHT22;10495;50.922;4.760;2023-02-22T11:22:34;12.00;85.60
20672;DHT22;10495;50.922;4.760;2023-02-22T11:25:03;12.20;85.40
20672;DHT22;10495;50.922;4.760;2023-02-22T11:27:42;12.30;85.20
20672;DHT22;10495;50.922;4.760;2023-02-22T11:30:30;12.50;85.10
20672;DHT22;10495;50.922;4.760;2023-02-22T11:35:51;12.70;85.00
20672;DHT22;10495;50.922;4.760;2023-02-22T11:38:31;12.80;84.40
20672;DHT22;10495;50.922;4.760;2023-02-22T11:41:17;12.80;84.30
20672;DHT22;10495;50.922;4.760;2023-02-22T11:43:45;13.00;83.60
20672;DHT22;10495;50.922;4.760;2023-02-22T11:46:23;13.00;82.60
20672;DHT22;10495;50.922;4.760;2023-02-22T11:48:59;13.00;82.60
20672;DHT22;10495;50.922;4.760;2023-02-22T12:10:05;13.30;83.00
20672;DHT22;10495;50.922;4.760;2023-02-22T12:20:20;13.10;82.80
20672;DHT22;10495;50.922;4.760;2023-02-22T12:23:02;13.20;82.80
20672;DHT22;10495;50.922;4.760;2023-02-22T12:25:40;13.00;82.50
20672;DHT22;10495;50.922;4.760;2023-02-22T12:28:17;13.10;82.90
20672;DHT22;10495;50.922;4.760;2023-02-22T12:30:48;13.30;82.60
20672;DHT22;10495;50.922;4.760;2023-02-22T12:33:25;13.20;82.90
20672;DHT22;10495;50.922;4.760;2023-02-22T12:35:54;13.30;83.30
20672;DHT22;10495;50.922;4.760;2023-02-22T12:38:32;13.40;83.20
20672;DHT22;10495;50.922;4.760;2023-02-22T12:41:29;13.40;83.30
20672;DHT22;10495;50.922;4.760;2023-02-22T12:44:04;13.40;82.80
20672;DHT22;10495;50.922;4.760;2023-02-22T12:54:35;13.60;82.90
20672;DHT22;10495;50.922;4.760;2023-02-22T12:57:07;13.60;82.40
20672;DHT22;10495;50.922;4.760;2023-02-22T12:59:46;13.70;82.40
20672;DHT22;10495;50.922;4.760;2023-02-22T13:02:28;13.70;82.70
20672;DHT22;10495;50.922;4.760;2023-02-22T13:04:54;13.70;83.10
20672;DHT22;10495;50.922;4.760;2023-02-22T13:12:40;13.70;83.20
20672;DHT22;10495;50.922;4.760;2023-02-22T13:21:12;13.80;83.40
20672;DHT22;10495;50.922;4.760;2023-02-22T13:23:40;13.80;83.40
20672;DHT22;10495;50.922;4.760;2023-02-22T13:26:20;13.80;83.40
20672;DHT22;10495;50.922;4.760;2023-02-22T13:40:16;13.90;82.70
20672;DHT22;10495;50.922;4.760;2023-02-22T13:43:07;13.70;82.40
20672;DHT22;10495;50.922;4.760;2023-02-22T13:46:06;13.70;82.70
20672;DHT22;10495;50.922;4.760;2023-02-22T13:48:49;13.70;82.60
20672;DHT22;10495;50.922;4.760;2023-02-22T13:54:40;13.90;81.30
20672;DHT22;10495;50.922;4.760;2023-02-22T13:57:25;14.00;80.50
20672;DHT22;10495;50.922;4.760;2023-02-22T14:13:11;13.70;81.20
20672;DHT22;10495;50.922;4.760;2023-02-22T14:18:45;13.60;80.70
20672;DHT22;10495;50.922;4.760;2023-02-22T14:21:19;13.70;80.70
20672;DHT22;10495;50.922;4.760;2023-02-22T14:23:51;13.70;80.70
20672;DHT22;10495;50.922;4.760;2023-02-22T14:28:56;13.70;81.40
20672;DHT22;10495;50.922;4.760;2023-02-22T14:36:58;13.40;82.30
20672;DHT22;10495;50.922;4.760;2023-02-22T14:42:40;13.40;82.40
20672;DHT22;10495;50.922;4.760;2023-02-22T14:47:49;13.40;82.70
20672;DHT22;10495;50.922;4.760;2023-02-22T14:50:22;13.40;82.80
20672;DHT22;10495;50.922;4.760;2023-02-22T14:55:41;13.40;83.00
20672;DHT22;10495;50.922;4.760;2023-02-22T14:58:13;13.50;83.00
20672;DHT22;10495;50.922;4.760;2023-02-22T15:00:45;13.40;83.20
20672;DHT22;10495;50.922;4.760;2023-02-22T15:03:32;13.50;82.70
20672;DHT22;10495;50.922;4.760;2023-02-22T15:06:20;13.50;82.80
20672;DHT22;10495;50.922;4.760;2023-02-22T15:08:47;13.50;82.90
20672;DHT22;10495;50.922;4.760;2023-02-22T15:11:22;13.40;83.20
20672;DHT22;10495;50.922;4.760;2023-02-22T15:13:53;13.40;83.20
20672;DHT22;10495;50.922;4.760;2023-02-22T15:16:20;13.40;83.60
20672;DHT22;10495;50.922;4.760;2023-02-22T15:18:51;13.20;84.10
20672;DHT22;10495;50.922;4.760;2023-02-22T15:21:23;13.20;84.10
20672;DHT22;10495;50.922;4.760;2023-02-22T15:23:58;13.50;83.30
20672;DHT22;10495;50.922;4.760;2023-02-22T15:26:32;13.20;83.60
20672;DHT22;10495;50.922;4.760;2023-02-22T15:29:08;13.30;83.30
20672;DHT22;10495;50.922;4.760;2023-02-22T15:31:36;13.30;83.10
20672;DHT22;10495;50.922;4.760;2023-02-22T15:36:42;13.00;83.90
20672;DHT22;10495;50.922;4.760;2023-02-22T15:39:28;13.00;84.00
20672;DHT22;10495;50.922;4.760;2023-02-22T15:42:15;12.80;84.40
20672;DHT22;10495;50.922;4.760;2023-02-22T15:44:50;13.00;83.70
20672;DHT22;10495;50.922;4.760;2023-02-22T15:47:29;13.10;83.70
20672;DHT22;10495;50.922;4.760;2023-02-22T15:55:48;12.90;83.60
20672;DHT22;10495;50.922;4.760;2023-02-22T15:58:21;12.90;84.40
20672;DHT22;10495;50.922;4.760;2023-02-22T16:00:57;13.00;83.90
20672;DHT22;10495;50.922;4.760;2023-02-22T16:03:24;12.90;84.20
20672;DHT22;10495;50.922;4.760;2023-02-22T16:05:55;13.00;83.90
20672;DHT22;10495;50.922;4.760;2023-02-22T16:08:39;12.90;83.80
20672;DHT22;10495;50.922;4.760;2023-02-22T16:11:13;12.90;84.30
20672;DHT22;10495;50.922;4.760;2023-02-22T16:13:41;12.80;84.10
20672;DHT22;10495;50.922;4.760;2023-02-22T16:18:41;12.80;84.60
20672;DHT22;10495;50.922;4.760;2023-02-22T16:21:19;12.70;85.00
20672;DHT22;10495;50.922;4.760;2023-02-22T16:23:52;12.70;85.00
20672;DHT22;10495;50.922;4.760;2023-02-22T16:31:31;12.70;84.80
20672;DHT22;10495;50.922;4.760;2023-02-22T16:34:07;12.60;85.10
20672;DHT22;10495;50.922;4.760;2023-02-22T16:39:06;12.50;84.90
20672;DHT22;10495;50.922;4.760;2023-02-22T16:41:32;12.50;84.90
20672;DHT22;10495;50.922;4.760;2023-02-22T16:43:58;12.40;85.40
20672;DHT22;10495;50.922;4.760;2023-02-22T16:46:24;12.30;85.80
20672;DHT22;10495;50.922;4.760;2023-02-22T16:48:50;12.20;85.90
20672;DHT22;10495;50.922;4.760;2023-02-22T16:51:22;12.20;85.90
20672;DHT22;10495;50.922;4.760;2023-02-22T16:53:51;12.30;86.00
20672;DHT22;10495;50.922;4.760;2023-02-22T16:56:18;12.30;85.60
20672;DHT22;10495;50.922;4.760;2023-02-22T16:58:46;12.30;85.40
20672;DHT22;10495;50.922;4.760;2023-02-22T17:01:14;12.30;85.40
20672;DHT22;10495;50.922;4.760;2023-02-22T17:03:40;12.40;84.80
20672;DHT22;10495;50.922;4.760;2023-02-22T17:06:07;12.40;84.30
20672;DHT22;10495;50.922;4.760;2023-02-22T17:08:36;12.40;84.90
20672;DHT22;10495;50.922;4.760;2023-02-22T17:11:01;12.40;84.00
20672;DHT22;10495;50.922;4.760;2023-02-22T17:13:28;12.20;84.40
20672;DHT22;10495;50.922;4.760;2023-02-22T17:15:55;12.40;84.10
20672;DHT22;10495;50.922;4.760;2023-02-22T17:18:22;12.30;84.30
20672;DHT22;10495;50.922;4.760;2023-02-22T17:20:52;12.20;84.50
20672;DHT22;10495;50.922;4.760;2023-02-22T17:23:18;12.20;84.60
20672;DHT22;10495;50.922;4.760;2023-02-22T17:25:52;12.10;84.80
20672;DHT22;10495;50.922;4.760;2023-02-22T17:28:22;12.10;84.70
20672;DHT22;10495;50.922;4.760;2023-02-22T17:30:49;12.00;85.10
20672;DHT22;10495;50.922;4.760;2023-02-22T17:33:23;12.10;85.10
20672;DHT22;10495;50.922;4.760;2023-02-22T17:35:52;12.10;85.10
20672;DHT22;10495;50.922;4.760;2023-02-22T17:38:18;12.10;85.70
20672;DHT22;10495;50.922;4.760;2023-02-22T17:40:45;12.00;85.30
20672;DHT22;10495;50.922;4.760;2023-02-22T17:43:19;11.90;85.80
20672;DHT22;10495;50.922;4.760;2023-02-22T17:45:45;11.90;85.80
20672;DHT22;10495;50.922;4.760;2023-02-22T17:48:12;12.00;85.80
20672;DHT22;10495;50.922;4.760;2023-02-22T17:50:39;11.90;85.80
20672;DHT22;10495;50.922;4.760;2023-02-22T17:53:05;11.80;86.00
20672;DHT22;10495;50.922;4.760;2023-02-22T17:55:31;11.70;86.50
20672;DHT22;10495;50.922;4.760;2023-02-22T17:57:58;11.70;86.90
20672;DHT22;10495;50.922;4.760;2023-02-22T18:00:27;11.70;87.30
20672;DHT22;10495;50.922;4.760;2023-02-22T18:03:06;11.60;87.20
20672;DHT22;10495;50.922;4.760;2023-02-22T18:05:41;11.60;87.50
20672;DHT22;10495;50.922;4.760;2023-02-22T18:08:07;11.60;87.60
20672;DHT22;10495;50.922;4.760;2023-02-22T18:10:32;11.70;87.30
20672;DHT22;10495;50.922;4.760;2023-02-22T18:12:58;11.60;87.40
20672;DHT22;10495;50.922;4.760;2023-02-22T18:15:27;11.60;87.80
20672;DHT22;10495;50.922;4.760;2023-02-22T18:17:54;11.60;87.70
20672;DHT22;10495;50.922;4.760;2023-02-22T18:20:20;11.60;87.80
20672;DHT22;10495;50.922;4.760;2023-02-22T18:22:59;11.60;87.90
20672;DHT22;10495;50.922;4.760;2023-02-22T18:25:25;11.70;87.60
20672;DHT22;10495;50.922;4.760;2023-02-22T18:27:52;11.80;87.10
20672;DHT22;10495;50.922;4.760;2023-02-22T18:30:18;11.70;87.50
20672;DHT22;10495;50.922;4.760;2023-02-22T18:32:44;11.70;87.80
20672;DHT22;10495;50.922;4.760;2023-02-22T18:35:11;11.70;87.80
20672;DHT22;10495;50.922;4.760;2023-02-22T18:37:37;11.60;87.90
20672;DHT22;10495;50.922;4.760;2023-02-22T18:40:03;11.60;88.10
20672;DHT22;10495;50.922;4.760;2023-02-22T18:42:35;11.60;88.00
20672;DHT22;10495;50.922;4.760;2023-02-22T18:45:02;11.70;88.00